createdAt,value
2018-07-13T00:01:22.215Z,7.63
2018-07-13T00:03:51.879Z,7.27
2018-07-13T00:06:20.079Z,7.80
2018-07-13T00:08:48.191Z,7.60
2018-07-13T00:11:16.256Z,7.87
2018-07-13T00:14:24.512Z,8.10
2018-07-13T00:16:53.950Z,6.67
2018-07-13T00:19:22.963Z,7.37
2018-07-13T00:21:51.887Z,8.43
2018-07-13T00:24:20.781Z,8.63
2018-07-13T00:26:49.025Z,8.00
2018-07-13T00:29:17.256Z,8.30
2018-07-13T00:31:45.623Z,9.53
2018-07-13T00:34:13.683Z,9.03
2018-07-13T00:36:41.887Z,8.33
2018-07-13T00:39:11.625Z,7.57
2018-07-13T00:41:39.675Z,7.23
2018-07-13T00:44:08.196Z,6.90
2018-07-13T00:46:36.236Z,7.33
2018-07-13T00:49:04.346Z,8.67
2018-07-13T00:51:32.500Z,9.43
2018-07-13T00:54:00.794Z,8.23
2018-07-13T00:56:29.049Z,8.57
2018-07-13T00:58:57.245Z,7.70
2018-07-13T01:01:25.275Z,7.63
2018-07-13T01:03:53.356Z,8.70
2018-07-13T01:06:21.412Z,9.00
2018-07-13T01:08:49.467Z,9.87
2018-07-13T01:11:17.553Z,9.70
2018-07-13T01:13:45.591Z,10.13
2018-07-13T01:16:13.808Z,10.53
2018-07-13T01:18:41.871Z,11.27
2018-07-13T01:21:09.919Z,11.43
2018-07-13T01:23:38.098Z,10.60
2018-07-13T01:26:06.174Z,10.37
2018-07-13T01:28:34.383Z,10.10
2018-07-13T01:31:02.799Z,10.47
2018-07-13T01:33:30.860Z,10.13
2018-07-13T01:35:58.931Z,11.53
2018-07-13T01:38:27.403Z,10.80
2018-07-13T01:40:55.451Z,11.27
2018-07-13T01:43:23.514Z,11.83
2018-07-13T01:45:51.744Z,10.63
2018-07-13T01:48:20.387Z,11.67
2018-07-13T01:50:48.979Z,10.30
2018-07-13T01:53:17.114Z,11.30
2018-07-13T01:55:45.217Z,14.00
2018-07-13T01:58:13.208Z,15.80
2018-07-13T02:00:41.706Z,17.63
2018-07-13T02:03:09.776Z,23.77
2018-07-13T02:05:37.842Z,19.97
2018-07-13T02:08:06.021Z,20.83
2018-07-13T02:10:34.083Z,21.47
2018-07-13T02:13:02.127Z,18.73
2018-07-13T02:15:30.207Z,20.50
2018-07-13T02:17:58.416Z,20.07
2018-07-13T02:20:26.807Z,20.97
2018-07-13T02:22:55.003Z,21.50
2018-07-13T02:25:23.323Z,20.77
2018-07-13T02:27:51.843Z,21.00
2018-07-13T02:30:20.252Z,21.60
2018-07-13T02:32:48.929Z,20.43
2018-07-13T02:35:17.070Z,19.93
2018-07-13T02:37:46.263Z,20.27
2018-07-13T02:40:14.487Z,21.30
2018-07-13T02:42:42.535Z,21.87
2018-07-13T02:45:10.847Z,22.40
2018-07-13T02:47:38.933Z,22.53
2018-07-13T02:50:07.029Z,23.83
2018-07-13T02:52:35.181Z,22.70
2018-07-13T02:55:03.278Z,22.77
2018-07-13T02:57:31.377Z,23.03
2018-07-13T02:59:59.545Z,21.60
2018-07-13T03:02:27.576Z,23.07
2018-07-13T03:04:55.632Z,23.43
2018-07-13T03:07:23.720Z,24.50
2018-07-13T03:09:51.771Z,23.27
2018-07-13T03:15:10.076Z,23.57
2018-07-13T03:17:38.117Z,23.97
2018-07-13T03:20:06.152Z,21.37
2018-07-13T03:22:34.197Z,23.03
2018-07-13T03:25:02.271Z,24.53
2018-07-13T03:27:30.327Z,23.63
2018-07-13T03:29:58.439Z,23.33
2018-07-13T03:32:26.507Z,23.40
2018-07-13T03:34:54.855Z,24.03
2018-07-13T03:37:22.910Z,24.13
2018-07-13T03:39:50.972Z,25.60
2018-07-13T03:42:19.311Z,26.10
2018-07-13T03:44:47.359Z,25.40
2018-07-13T03:47:15.441Z,24.27
2018-07-13T03:49:43.515Z,26.60
2018-07-13T03:52:11.575Z,24.20
2018-07-13T03:54:39.628Z,22.67
2018-07-13T03:57:07.679Z,24.23
2018-07-13T03:59:35.757Z,22.80
2018-07-13T04:02:03.813Z,23.00
2018-07-13T04:04:31.916Z,23.23
2018-07-13T04:06:59.981Z,23.00
2018-07-13T04:09:28.395Z,23.00
2018-07-13T04:11:56.472Z,23.33
2018-07-13T04:14:24.524Z,23.30
2018-07-13T04:16:52.856Z,23.40
2018-07-13T04:19:20.903Z,24.00
2018-07-13T04:21:48.956Z,23.23
2018-07-13T04:24:17.044Z,25.07
2018-07-13T04:26:47.343Z,23.67
2018-07-13T04:29:15.468Z,26.17
2018-07-13T04:31:43.527Z,25.50
2018-07-13T04:34:11.622Z,26.93
2018-07-13T04:36:39.672Z,24.20
2018-07-13T04:39:09.324Z,23.67
2018-07-13T04:41:37.388Z,22.07
2018-07-13T04:44:05.743Z,26.00
2018-07-13T04:46:34.283Z,24.57
2018-07-13T04:49:02.600Z,24.77
2018-07-13T04:51:30.656Z,24.33
2018-07-13T04:53:58.794Z,23.03
2018-07-13T04:56:27.037Z,23.73
2018-07-13T04:58:55.249Z,22.10
2018-07-13T05:01:23.449Z,22.70
2018-07-13T05:03:51.496Z,22.73
2018-07-13T05:06:19.679Z,20.40
2018-07-13T05:08:47.689Z,18.53
2018-07-13T05:11:15.764Z,19.67
2018-07-13T05:13:43.831Z,20.63
2018-07-13T05:16:11.951Z,19.87
2018-07-13T05:18:40.020Z,20.37
2018-07-13T05:21:08.081Z,20.20
2018-07-13T05:23:36.152Z,19.63
2018-07-13T05:26:04.320Z,19.37
2018-07-13T05:28:32.399Z,19.53
2018-07-13T05:31:00.497Z,19.77
2018-07-13T05:33:28.571Z,19.87
2018-07-13T05:35:56.876Z,19.30
2018-07-13T05:38:24.949Z,17.33
2018-07-13T05:40:52.992Z,17.43
2018-07-13T05:43:21.062Z,17.73
2018-07-13T05:45:49.119Z,18.03
2018-07-13T05:48:17.328Z,17.60
2018-07-13T05:50:45.443Z,18.67
2018-07-13T05:53:13.504Z,20.40
2018-07-13T05:55:41.586Z,20.43
2018-07-13T05:58:09.663Z,21.70
2018-07-13T06:00:37.889Z,21.90
2018-07-13T06:03:05.960Z,21.33
2018-07-13T06:05:34.329Z,23.30
2018-07-13T06:08:02.489Z,23.13
2018-07-13T06:10:30.551Z,22.83
2018-07-13T06:12:58.636Z,23.50
2018-07-13T06:15:27.772Z,22.07
2018-07-13T06:17:55.884Z,20.27
2018-07-13T06:20:24.018Z,22.23
2018-07-13T06:22:52.179Z,24.97
2018-07-13T06:25:20.213Z,24.90
2018-07-13T06:27:48.284Z,24.07
2018-07-13T06:30:16.343Z,22.60
2018-07-13T06:32:44.755Z,24.70
2018-07-13T06:35:12.832Z,25.93
2018-07-13T06:37:40.880Z,23.17
2018-07-13T06:40:09.185Z,23.40
2018-07-13T06:42:37.236Z,26.83
2018-07-13T06:45:05.343Z,26.00
2018-07-13T06:47:33.488Z,24.23
2018-07-13T06:50:01.547Z,23.53
2018-07-13T06:52:29.863Z,21.63
2018-07-13T06:54:57.928Z,21.37
2018-07-13T06:57:37.303Z,21.90
2018-07-13T07:01:17.415Z,20.73
2018-07-13T07:04:48.507Z,20.88
2018-07-13T07:07:18.148Z,23.77
2018-07-13T07:09:48.811Z,22.40
2018-07-13T07:12:56.662Z,20.70
2018-07-13T07:15:25.416Z,23.02
2018-07-13T07:17:54.530Z,22.57
2018-07-13T07:20:22.591Z,22.47
2018-07-13T07:22:50.648Z,20.90
2018-07-13T07:25:18.975Z,21.35
2018-07-13T07:27:47.167Z,22.17
2018-07-13T07:30:15.207Z,23.02
2018-07-13T07:32:44.045Z,21.45
2018-07-13T07:35:12.140Z,21.70
2018-07-13T07:37:40.288Z,20.53
2018-07-13T07:40:08.321Z,19.80
2018-07-13T07:42:36.362Z,20.95
2018-07-13T07:45:04.988Z,17.85
2018-07-13T07:47:33.388Z,18.98
2018-07-13T07:50:02.262Z,18.65
2018-07-13T07:52:30.568Z,19.37
2018-07-13T07:54:58.711Z,19.60
2018-07-13T07:57:26.958Z,19.00
2018-07-13T07:59:55.073Z,17.05
2018-07-13T08:02:23.321Z,15.93
2018-07-13T08:04:51.501Z,16.48
2018-07-13T08:07:19.920Z,15.90
2018-07-13T08:09:47.852Z,16.90
2018-07-13T08:12:16.077Z,14.85
2018-07-13T08:14:44.142Z,15.65
2018-07-13T08:17:12.169Z,15.00
2018-07-13T08:19:40.216Z,14.93
2018-07-13T08:22:15.075Z,14.78
2018-07-13T08:24:44.352Z,16.05
2018-07-13T08:27:14.595Z,15.25
2018-07-13T08:29:42.644Z,14.73
2018-07-13T08:32:10.699Z,13.10
2018-07-13T08:34:39.672Z,14.58
2018-07-13T08:37:07.809Z,14.60
2018-07-13T08:39:36.118Z,14.13
2018-07-13T08:42:04.204Z,14.70
2018-07-13T08:44:32.271Z,12.82
2018-07-13T08:47:01.711Z,16.45
2018-07-13T08:49:29.755Z,14.58
2018-07-13T08:51:57.831Z,14.73
2018-07-13T08:54:25.927Z,15.53
2018-07-13T08:56:54.892Z,16.00
2018-07-13T08:59:23.097Z,15.88
2018-07-13T09:01:51.260Z,17.20
2018-07-13T09:04:19.400Z,14.65
2018-07-13T09:06:47.557Z,32.28
2018-07-13T09:09:17.471Z,13.88
2018-07-13T09:11:45.861Z,13.38
2018-07-13T09:14:13.964Z,12.47
2018-07-13T09:16:42.068Z,12.78
2018-07-13T09:19:10.120Z,12.18
2018-07-13T09:21:38.547Z,13.35
2018-07-13T09:24:07.257Z,13.58
2018-07-13T09:26:35.343Z,13.78
2018-07-13T09:29:03.384Z,13.90
2018-07-13T09:31:31.443Z,13.13
2018-07-13T09:33:59.501Z,12.28
2018-07-13T09:36:27.561Z,12.50
2018-07-13T09:38:55.631Z,11.78
2018-07-13T09:41:23.679Z,14.23
2018-07-13T09:43:52.007Z,14.70
2018-07-13T09:46:20.079Z,14.28
2018-07-13T09:48:48.135Z,13.72
2018-07-13T09:51:16.204Z,16.15
2018-07-13T09:53:44.328Z,14.30
2018-07-13T09:56:12.376Z,16.12
2018-07-13T09:58:40.472Z,16.57
2018-07-13T10:01:14.103Z,16.30
2018-07-13T10:03:42.618Z,15.48
2018-07-13T10:06:10.676Z,15.03
2018-07-13T10:08:38.753Z,14.63
2018-07-13T10:11:06.996Z,15.05
2018-07-13T10:13:35.092Z,13.83
2018-07-13T10:16:23.911Z,14.23
2018-07-13T10:18:52.486Z,14.60
2018-07-13T10:21:20.580Z,14.10
2018-07-13T10:23:48.796Z,14.28
2018-07-13T10:26:22.011Z,14.87
2018-07-13T10:28:50.361Z,14.43
2018-07-13T10:31:18.452Z,15.03
2018-07-13T10:33:47.444Z,15.88
2018-07-13T10:36:16.900Z,15.80
2018-07-13T10:38:45.275Z,14.60
2018-07-13T10:41:13.364Z,13.98
2018-07-13T10:43:41.862Z,12.93
2018-07-13T10:46:09.948Z,12.90
2018-07-13T10:48:38.041Z,13.75
2018-07-13T10:51:06.097Z,15.65
2018-07-13T10:53:34.428Z,13.53
2018-07-13T10:56:02.512Z,12.88
2018-07-13T10:58:30.647Z,13.72
2018-07-13T11:00:58.843Z,11.88
2018-07-13T11:03:26.987Z,12.85
2018-07-13T11:05:55.412Z,13.00
2018-07-13T11:08:24.003Z,11.35
2018-07-13T11:10:52.265Z,12.35
2018-07-13T11:13:20.696Z,13.83
2018-07-13T11:15:49.003Z,12.93
2018-07-13T11:18:17.063Z,12.47
2018-07-13T11:20:45.172Z,12.78
2018-07-13T11:23:13.240Z,15.93
2018-07-13T11:25:41.315Z,12.15
2018-07-13T11:28:09.544Z,12.35
2018-07-13T11:30:37.620Z,12.60
2018-07-13T11:33:06.616Z,13.15
2018-07-13T11:35:34.716Z,12.45
2018-07-13T11:38:02.782Z,11.33
2018-07-13T11:40:31.008Z,13.95
2018-07-13T11:42:59.216Z,12.30
2018-07-13T11:45:27.437Z,13.10
2018-07-13T11:47:55.591Z,13.15
2018-07-13T11:50:23.913Z,12.18
2018-07-13T11:52:52.214Z,12.50
2018-07-13T11:55:20.389Z,11.57
2018-07-13T11:57:48.645Z,12.25
2018-07-13T12:00:16.740Z,12.35
2018-07-13T12:02:44.783Z,12.00
2018-07-13T12:05:12.825Z,11.10
2018-07-13T12:07:41.011Z,11.78
2018-07-13T12:10:08.995Z,12.43
2018-07-13T12:12:37.071Z,13.22
2018-07-13T12:15:05.144Z,12.40
2018-07-13T12:17:33.268Z,11.70
2018-07-13T12:20:01.302Z,12.28
2018-07-13T12:22:29.390Z,11.78
2018-07-13T12:24:57.448Z,10.10
2018-07-13T12:27:25.501Z,12.43
2018-07-13T12:29:53.581Z,11.08
2018-07-13T12:32:22.500Z,12.47
2018-07-13T12:34:50.531Z,10.58
2018-07-13T12:37:18.687Z,11.48
2018-07-13T12:39:46.808Z,9.95
2018-07-13T12:42:14.897Z,9.15
2018-07-13T12:44:42.917Z,7.65
2018-07-13T12:47:10.968Z,7.80
2018-07-13T12:49:39.012Z,8.35
2018-07-13T12:52:07.628Z,8.30
2018-07-13T12:54:35.715Z,7.17
2018-07-13T12:57:03.744Z,7.35
2018-07-13T12:59:31.917Z,7.75
2018-07-13T13:01:59.909Z,7.90
2018-07-13T13:04:27.995Z,9.13
2018-07-13T13:06:56.482Z,8.00
2018-07-13T13:09:24.504Z,8.58
2018-07-13T13:11:52.556Z,7.03
2018-07-13T13:14:21.324Z,6.85
2018-07-13T13:16:49.431Z,7.03
2018-07-13T13:19:17.508Z,6.10
2018-07-13T13:21:45.783Z,5.85
2018-07-13T13:24:13.764Z,5.47
2018-07-13T13:26:41.824Z,6.78
2018-07-13T13:29:09.908Z,5.62
2018-07-13T13:31:38.281Z,5.78
2018-07-13T13:34:06.362Z,6.33
2018-07-13T13:36:35.516Z,6.50
2018-07-13T13:39:04.085Z,5.33
2018-07-13T13:41:32.336Z,5.80
2018-07-13T13:44:00.774Z,5.35
2018-07-13T13:46:29.233Z,5.78
2018-07-13T13:48:57.550Z,5.65
2018-07-13T13:51:26.273Z,5.72
2018-07-13T13:53:54.905Z,4.85
2018-07-13T13:56:23.384Z,4.90
2018-07-13T13:58:52.028Z,4.83
2018-07-13T14:01:20.425Z,5.10
2018-07-13T14:03:48.931Z,4.78
2018-07-13T14:06:17.051Z,4.90
2018-07-13T14:08:45.186Z,5.00
2018-07-13T14:11:13.479Z,4.85
2018-07-13T14:13:42.008Z,4.20
2018-07-13T14:16:10.047Z,4.05
2018-07-13T14:18:38.116Z,4.17
2018-07-13T14:21:06.615Z,4.20
2018-07-13T14:23:34.707Z,4.55
2018-07-13T14:26:02.808Z,4.00
2018-07-13T14:28:31.173Z,4.25
2018-07-13T14:30:59.221Z,4.17
2018-07-13T14:33:27.300Z,4.30
2018-07-13T14:35:55.405Z,4.15
2018-07-13T14:38:23.549Z,4.58
2018-07-13T14:40:52.112Z,3.75
2018-07-13T14:43:21.293Z,4.45
2018-07-13T14:45:49.573Z,3.92
2018-07-13T14:48:17.604Z,4.20
2018-07-13T14:50:45.680Z,4.75
2018-07-13T14:53:13.724Z,4.58
2018-07-13T14:55:41.759Z,4.78
2018-07-13T14:58:09.808Z,4.83
2018-07-13T15:00:37.859Z,4.70
2018-07-13T15:03:06.015Z,4.50
2018-07-13T15:05:34.156Z,4.12
2018-07-13T15:08:02.411Z,4.58
2018-07-13T15:10:30.726Z,4.42
2018-07-13T15:12:59.049Z,4.08
2018-07-13T15:15:27.319Z,4.28
2018-07-13T15:17:56.276Z,3.85
2018-07-13T15:20:24.784Z,4.10
2018-07-13T15:22:53.553Z,4.05
2018-07-13T15:25:22.848Z,4.55
2018-07-13T15:27:51.470Z,3.70
2018-07-13T15:30:20.511Z,4.30
2018-07-13T15:32:48.615Z,4.20
2018-07-13T15:35:16.966Z,4.42
2018-07-13T15:37:45.040Z,4.20
2018-07-13T15:40:13.208Z,4.50
2018-07-13T15:42:41.275Z,4.30
2018-07-13T15:45:09.716Z,4.03
2018-07-13T15:47:37.782Z,4.33
2018-07-13T15:50:05.842Z,4.62
2018-07-13T15:52:34.037Z,5.00
2018-07-13T15:55:02.440Z,4.25
2018-07-13T15:57:30.776Z,4.55
2018-07-13T15:59:59.185Z,3.83
2018-07-13T16:02:27.627Z,4.35
2018-07-13T16:04:55.885Z,4.30
2018-07-13T16:07:24.788Z,4.28
2018-07-13T16:09:53.395Z,4.62
2018-07-13T16:12:23.070Z,3.90
2018-07-13T16:14:52.145Z,3.50
2018-07-13T16:17:21.108Z,4.20
2018-07-13T16:19:49.549Z,4.17
2018-07-13T16:22:17.713Z,3.95
2018-07-13T16:24:45.879Z,4.10
2018-07-13T16:27:13.961Z,4.03
2018-07-13T16:29:42.088Z,4.80
2018-07-13T16:32:10.331Z,5.47
2018-07-13T16:34:38.466Z,4.67
2018-07-13T16:37:06.591Z,4.62
2018-07-13T16:39:34.891Z,4.67
2018-07-13T16:42:03.028Z,4.12
2018-07-13T16:44:31.313Z,4.33
2018-07-13T16:46:59.373Z,3.90
2018-07-13T16:49:27.411Z,3.80
2018-07-13T16:51:55.560Z,4.50
2018-07-13T16:54:23.743Z,3.67
2018-07-13T16:56:51.776Z,4.37
2018-07-13T16:59:19.843Z,3.85
2018-07-13T17:01:47.920Z,3.65
2018-07-13T17:04:16.047Z,4.00
2018-07-13T17:06:44.112Z,3.67
2018-07-13T17:09:12.541Z,3.62
2018-07-13T17:11:40.928Z,4.47
2018-07-13T17:14:08.978Z,4.58
2018-07-13T17:16:37.053Z,4.00
2018-07-13T17:19:05.167Z,4.12
2018-07-13T17:21:33.816Z,4.78
2018-07-13T17:24:02.152Z,3.70
2018-07-13T17:26:30.953Z,4.03
2018-07-13T17:28:59.769Z,3.83
2018-07-13T17:31:28.515Z,3.60
2018-07-13T17:33:57.569Z,3.90
2018-07-13T17:36:26.608Z,3.95
2018-07-13T17:38:55.369Z,3.27
2018-07-13T17:41:24.434Z,3.90
2018-07-13T17:43:52.485Z,4.17
2018-07-13T17:46:20.585Z,3.95
2018-07-13T17:48:48.636Z,3.67
2018-07-13T17:51:16.712Z,3.83
2018-07-13T17:53:44.767Z,4.40
2018-07-13T17:56:12.848Z,4.08
2018-07-13T17:58:40.932Z,4.75
2018-07-13T18:01:09.243Z,4.37
2018-07-13T18:03:37.378Z,3.77
2018-07-13T18:06:05.684Z,4.20
2018-07-13T18:08:33.904Z,4.40
2018-07-13T18:11:02.006Z,4.42
2018-07-13T18:13:30.130Z,4.17
2018-07-13T18:15:58.220Z,3.98
2018-07-13T18:18:26.259Z,4.50
2018-07-13T18:20:54.402Z,3.70
2018-07-13T18:23:22.487Z,3.60
2018-07-13T18:25:50.550Z,4.12
2018-07-13T18:28:18.654Z,3.40
2018-07-13T18:30:46.914Z,4.03
2018-07-13T18:33:15.052Z,3.58
2018-07-13T18:35:43.099Z,4.25
2018-07-13T18:38:11.152Z,4.55
2018-07-13T18:40:39.221Z,3.90
2018-07-13T18:43:07.271Z,3.87
2018-07-13T18:45:35.414Z,3.98
2018-07-13T18:48:03.672Z,4.12
2018-07-13T18:50:32.180Z,4.05
2018-07-13T18:53:00.400Z,3.87
2018-07-13T18:55:28.687Z,4.00
2018-07-13T18:57:57.539Z,4.05
2018-07-13T19:00:26.295Z,3.80
2018-07-13T19:02:54.369Z,3.80
2018-07-13T19:05:22.736Z,4.22
2018-07-13T19:07:50.803Z,3.95
2018-07-13T19:10:18.889Z,3.85
2018-07-13T19:12:46.939Z,4.20
2018-07-13T19:15:14.998Z,4.40
2018-07-13T19:17:43.044Z,3.90
2018-07-13T19:20:11.104Z,3.80
2018-07-13T19:22:39.232Z,4.05
2018-07-13T19:25:07.182Z,3.67
2018-07-13T19:27:35.231Z,4.62
2018-07-13T19:30:03.257Z,4.00
2018-07-13T19:32:31.575Z,4.45
2018-07-13T19:34:59.638Z,4.37
2018-07-13T19:37:27.728Z,4.33
2018-07-13T19:39:55.780Z,4.00
2018-07-13T19:42:23.999Z,4.15
2018-07-13T19:44:52.406Z,4.67
2018-07-13T19:47:20.448Z,4.42
2018-07-13T19:49:48.489Z,4.62
2018-07-13T19:52:16.537Z,4.55
2018-07-13T19:54:44.811Z,4.25
2018-07-13T19:57:12.953Z,5.25
2018-07-13T19:59:40.960Z,5.97
2018-07-13T20:02:09.139Z,6.28
2018-07-13T20:04:37.456Z,5.00
2018-07-13T20:07:05.837Z,6.03
2018-07-13T20:09:34.268Z,5.50
2018-07-13T20:12:02.407Z,5.55
2018-07-13T20:14:30.557Z,5.55
2018-07-13T20:16:58.964Z,6.12
2018-07-13T20:19:27.033Z,5.75
2018-07-13T20:21:55.733Z,6.50
2018-07-13T20:24:24.001Z,6.97
2018-07-13T20:26:52.212Z,6.80
2018-07-13T20:29:20.487Z,6.47
2018-07-13T20:31:48.551Z,6.87
2018-07-13T20:34:17.003Z,7.92
2018-07-13T20:36:45.127Z,8.10
2018-07-13T20:39:13.687Z,7.60
2018-07-13T20:41:41.776Z,7.90
2018-07-13T20:44:09.863Z,7.92
2018-07-13T20:46:38.059Z,8.10
2018-07-13T20:49:06.111Z,8.68
2018-07-13T20:51:34.269Z,8.40
2018-07-13T20:54:02.317Z,8.93
2018-07-13T20:56:30.814Z,8.30
2018-07-13T20:58:59.018Z,8.18
2018-07-13T21:01:27.150Z,9.18
2018-07-13T21:03:55.542Z,10.53
2018-07-13T21:06:23.798Z,9.55
2018-07-13T21:08:52.398Z,10.00
2018-07-13T21:11:20.604Z,9.58
2018-07-13T21:13:48.698Z,9.73
2018-07-13T21:16:16.756Z,9.83
2018-07-13T21:18:46.318Z,10.00
2018-07-13T21:21:14.408Z,9.48
2018-07-13T21:23:42.468Z,11.12
2018-07-13T21:26:10.812Z,10.75
2018-07-13T21:28:39.218Z,9.80
2018-07-13T21:31:07.291Z,10.70
2018-07-13T21:33:35.447Z,10.35
2018-07-13T21:36:03.972Z,11.30
2018-07-13T21:38:32.159Z,11.10
2018-07-13T21:41:00.280Z,12.05
2018-07-13T21:43:28.676Z,11.73
2018-07-13T21:45:56.911Z,10.95
2018-07-13T21:48:25.230Z,11.70
2018-07-13T21:50:53.532Z,11.55
2018-07-13T21:53:21.962Z,11.12
2018-07-13T21:55:50.299Z,12.43
2018-07-13T21:58:18.416Z,11.87
2018-07-13T22:00:46.479Z,11.55
2018-07-13T22:03:14.553Z,11.03
2018-07-13T22:05:42.604Z,11.63
2018-07-13T22:08:10.800Z,12.27
2018-07-13T22:10:39.024Z,11.43
2018-07-13T22:13:07.107Z,12.18
2018-07-13T22:15:35.339Z,12.17
2018-07-13T22:18:02.546Z,12.83
2018-07-13T22:20:30.579Z,12.00
2018-07-13T22:22:58.625Z,12.50
2018-07-13T22:25:26.692Z,13.70
2018-07-13T22:27:54.747Z,13.70
2018-07-13T22:30:22.783Z,13.53
2018-07-13T22:32:50.909Z,13.67
2018-07-13T22:35:18.980Z,14.30
2018-07-13T22:37:47.050Z,14.23
2018-07-13T22:40:15.253Z,13.33
2018-07-13T22:42:43.343Z,12.97
2018-07-13T22:45:11.900Z,13.80
2018-07-13T22:47:40.089Z,12.97
2018-07-13T22:50:08.191Z,13.10
2018-07-13T22:52:36.276Z,12.67
2018-07-13T22:55:04.382Z,13.33
2018-07-13T22:57:32.453Z,13.20
2018-07-13T23:00:00.626Z,13.30
2018-07-13T23:02:28.621Z,13.07
2018-07-13T23:04:56.704Z,13.23
2018-07-13T23:07:24.785Z,13.07
2018-07-13T23:09:52.847Z,12.67
2018-07-13T23:12:20.899Z,11.57
2018-07-13T23:14:48.963Z,11.80
2018-07-13T23:17:17.015Z,12.53
2018-07-13T23:19:45.138Z,12.93
2018-07-13T23:22:13.210Z,11.60
2018-07-13T23:24:41.307Z,12.37
2018-07-13T23:27:09.537Z,12.23
2018-07-13T23:29:37.601Z,12.83
2018-07-13T23:32:05.773Z,11.87
2018-07-13T23:34:33.860Z,12.37
2018-07-13T23:37:02.064Z,12.73
2018-07-13T23:39:30.188Z,12.80
2018-07-13T23:41:58.296Z,12.97
2018-07-13T23:44:26.763Z,12.70
2018-07-13T23:46:54.941Z,12.23
2018-07-13T23:49:23.239Z,12.97
2018-07-13T23:51:51.432Z,12.50
2018-07-13T23:54:19.572Z,12.53
2018-07-13T23:56:47.971Z,11.90
2018-07-13T23:59:16.130Z,12.23
